sensor_id;sensor_type;location;lat;lon;timestamp;P1;durP1;ratioP1;P2;durP2;ratioP2
59442;SDS011;45247;47.466;19.004;2022-10-16T00:01:07;18.15;;;6.65;;
59442;SDS011;45247;47.466;19.004;2022-10-16T00:03:37;19.27;;;7.35;;
59442;SDS011;45247;47.466;19.004;2022-10-16T00:06:07;10.88;;;6.75;;
59442;SDS011;45247;47.466;19.004;2022-10-16T00:08:36;11.00;;;5.80;;
59442;SDS011;45247;47.466;19.004;2022-10-16T00:11:06;10.88;;;5.40;;
59442;SDS011;45247;47.466;19.004;2022-10-16T00:13:35;11.15;;;6.75;;
59442;SDS011;45247;47.466;19.004;2022-10-16T00:16:05;11.90;;;6.15;;
59442;SDS011;45247;47.466;19.004;2022-10-16T00:18:34;9.35;;;6.57;;
59442;SDS011;45247;47.466;19.004;2022-10-16T00:21:04;9.18;;;6.03;;
59442;SDS011;45247;47.466;19.004;2022-10-16T00:23:34;9.93;;;5.85;;
59442;SDS011;45247;47.466;19.004;2022-10-16T00:26:04;9.75;;;5.65;;
59442;SDS011;45247;47.466;19.004;2022-10-16T00:28:33;14.50;;;6.80;;
59442;SDS011;45247;47.466;19.004;2022-10-16T00:31:03;14.52;;;6.65;;
59442;SDS011;45247;47.466;19.004;2022-10-16T00:33:31;11.52;;;6.32;;
59442;SDS011;45247;47.466;19.004;2022-10-16T00:36:00;9.27;;;6.07;;
59442;SDS011;45247;47.466;19.004;2022-10-16T00:38:28;11.57;;;6.43;;
59442;SDS011;45247;47.466;19.004;2022-10-16T00:40:58;10.43;;;5.93;;
59442;SDS011;45247;47.466;19.004;2022-10-16T00:43:33;13.18;;;6.75;;
59442;SDS011;45247;47.466;19.004;2022-10-16T00:46:10;7.70;;;5.28;;
59442;SDS011;45247;47.466;19.004;2022-10-16T00:48:45;10.65;;;5.20;;
59442;SDS011;45247;47.466;19.004;2022-10-16T00:51:17;10.10;;;5.50;;
59442;SDS011;45247;47.466;19.004;2022-10-16T00:53:49;11.65;;;5.55;;
59442;SDS011;45247;47.466;19.004;2022-10-16T00:56:19;7.85;;;5.20;;
59442;SDS011;45247;47.466;19.004;2022-10-16T00:58:47;11.27;;;6.13;;
59442;SDS011;45247;47.466;19.004;2022-10-16T01:01:15;9.40;;;6.25;;
59442;SDS011;45247;47.466;19.004;2022-10-16T01:03:43;7.55;;;6.03;;
59442;SDS011;45247;47.466;19.004;2022-10-16T01:06:16;11.23;;;6.22;;
59442;SDS011;45247;47.466;19.004;2022-10-16T01:11:32;10.80;;;6.13;;
59442;SDS011;45247;47.466;19.004;2022-10-16T01:14:08;12.02;;;6.78;;
59442;SDS011;45247;47.466;19.004;2022-10-16T01:16:43;8.30;;;5.63;;
59442;SDS011;45247;47.466;19.004;2022-10-16T01:19:16;10.88;;;6.07;;
59442;SDS011;45247;47.466;19.004;2022-10-16T01:21:53;9.32;;;5.80;;
59442;SDS011;45247;47.466;19.004;2022-10-16T01:24:27;10.90;;;6.07;;
59442;SDS011;45247;47.466;19.004;2022-10-16T01:27:11;12.52;;;6.43;;
59442;SDS011;45247;47.466;19.004;2022-10-16T01:29:44;9.75;;;5.78;;
59442;SDS011;45247;47.466;19.004;2022-10-16T01:32:18;11.50;;;6.63;;
59442;SDS011;45247;47.466;19.004;2022-10-16T01:34:58;10.52;;;6.40;;
59442;SDS011;45247;47.466;19.004;2022-10-16T01:37:32;12.27;;;6.30;;
59442;SDS011;45247;47.466;19.004;2022-10-16T01:40:07;9.32;;;6.10;;
59442;SDS011;45247;47.466;19.004;2022-10-16T01:42:40;8.27;;;5.65;;
59442;SDS011;45247;47.466;19.004;2022-10-16T01:45:11;10.82;;;6.35;;
59442;SDS011;45247;47.466;19.004;2022-10-16T01:47:44;12.82;;;6.60;;
59442;SDS011;45247;47.466;19.004;2022-10-16T01:50:14;12.80;;;6.43;;
59442;SDS011;45247;47.466;19.004;2022-10-16T01:52:45;8.25;;;5.93;;
59442;SDS011;45247;47.466;19.004;2022-10-16T01:55:17;11.40;;;6.50;;
59442;SDS011;45247;47.466;19.004;2022-10-16T01:57:52;11.02;;;6.60;;
59442;SDS011;45247;47.466;19.004;2022-10-16T02:00:22;10.23;;;6.60;;
59442;SDS011;45247;47.466;19.004;2022-10-16T02:02:52;10.02;;;6.25;;
59442;SDS011;45247;47.466;19.004;2022-10-16T02:05:23;12.00;;;7.18;;
59442;SDS011;45247;47.466;19.004;2022-10-16T02:07:54;13.60;;;7.25;;
59442;SDS011;45247;47.466;19.004;2022-10-16T02:10:26;10.18;;;6.55;;
59442;SDS011;45247;47.466;19.004;2022-10-16T02:13:00;12.23;;;6.82;;
59442;SDS011;45247;47.466;19.004;2022-10-16T02:15:33;9.75;;;6.88;;
59442;SDS011;45247;47.466;19.004;2022-10-16T02:18:01;12.05;;;6.97;;
59442;SDS011;45247;47.466;19.004;2022-10-16T02:20:32;14.30;;;6.65;;
59442;SDS011;45247;47.466;19.004;2022-10-16T02:23:04;9.23;;;6.20;;
59442;SDS011;45247;47.466;19.004;2022-10-16T02:28:09;15.30;;;6.85;;
59442;SDS011;45247;47.466;19.004;2022-10-16T02:30:46;13.50;;;7.60;;
59442;SDS011;45247;47.466;19.004;2022-10-16T02:33:18;12.82;;;7.78;;
59442;SDS011;45247;47.466;19.004;2022-10-16T02:35:49;14.20;;;6.22;;
59442;SDS011;45247;47.466;19.004;2022-10-16T02:38:18;10.15;;;7.25;;
59442;SDS011;45247;47.466;19.004;2022-10-16T02:40:48;13.25;;;7.10;;
59442;SDS011;45247;47.466;19.004;2022-10-16T02:43:18;13.48;;;7.90;;
59442;SDS011;45247;47.466;19.004;2022-10-16T02:45:47;11.35;;;7.22;;
59442;SDS011;45247;47.466;19.004;2022-10-16T02:48:15;12.90;;;7.68;;
59442;SDS011;45247;47.466;19.004;2022-10-16T02:50:43;15.48;;;7.88;;
59442;SDS011;45247;47.466;19.004;2022-10-16T02:53:11;15.75;;;7.57;;
59442;SDS011;45247;47.466;19.004;2022-10-16T02:55:39;14.02;;;7.63;;
59442;SDS011;45247;47.466;19.004;2022-10-16T02:58:07;9.68;;;6.78;;
59442;SDS011;45247;47.466;19.004;2022-10-16T03:00:36;13.30;;;8.40;;
59442;SDS011;45247;47.466;19.004;2022-10-16T03:03:04;15.68;;;8.15;;
59442;SDS011;45247;47.466;19.004;2022-10-16T03:05:32;16.27;;;8.10;;
59442;SDS011;45247;47.466;19.004;2022-10-16T03:08:00;15.40;;;8.15;;
59442;SDS011;45247;47.466;19.004;2022-10-16T03:10:28;10.43;;;7.43;;
59442;SDS011;45247;47.466;19.004;2022-10-16T03:12:56;14.55;;;7.97;;
59442;SDS011;45247;47.466;19.004;2022-10-16T03:15:25;14.60;;;7.82;;
59442;SDS011;45247;47.466;19.004;2022-10-16T03:17:56;18.35;;;7.55;;
59442;SDS011;45247;47.466;19.004;2022-10-16T03:20:24;15.07;;;7.10;;
59442;SDS011;45247;47.466;19.004;2022-10-16T03:22:53;12.80;;;7.75;;
59442;SDS011;45247;47.466;19.004;2022-10-16T03:25:21;11.52;;;7.78;;
59442;SDS011;45247;47.466;19.004;2022-10-16T03:27:49;11.98;;;7.72;;
59442;SDS011;45247;47.466;19.004;2022-10-16T03:30:17;13.98;;;8.50;;
59442;SDS011;45247;47.466;19.004;2022-10-16T03:32:45;15.68;;;8.10;;
59442;SDS011;45247;47.466;19.004;2022-10-16T03:35:14;13.40;;;8.65;;
59442;SDS011;45247;47.466;19.004;2022-10-16T03:37:42;17.08;;;8.43;;
59442;SDS011;45247;47.466;19.004;2022-10-16T03:40:10;16.15;;;8.85;;
59442;SDS011;45247;47.466;19.004;2022-10-16T03:42:39;13.68;;;8.30;;
59442;SDS011;45247;47.466;19.004;2022-10-16T03:45:07;14.70;;;8.27;;
59442;SDS011;45247;47.466;19.004;2022-10-16T03:47:35;16.30;;;8.32;;
59442;SDS011;45247;47.466;19.004;2022-10-16T03:50:04;14.02;;;8.60;;
59442;SDS011;45247;47.466;19.004;2022-10-16T03:52:34;12.07;;;7.50;;
59442;SDS011;45247;47.466;19.004;2022-10-16T03:55:02;13.32;;;7.82;;
59442;SDS011;45247;47.466;19.004;2022-10-16T03:57:30;12.07;;;7.80;;
59442;SDS011;45247;47.466;19.004;2022-10-16T03:59:58;11.70;;;7.80;;
59442;SDS011;45247;47.466;19.004;2022-10-16T04:02:26;17.33;;;8.68;;
59442;SDS011;45247;47.466;19.004;2022-10-16T04:04:54;17.90;;;9.48;;
59442;SDS011;45247;47.466;19.004;2022-10-16T04:07:22;13.85;;;9.32;;
59442;SDS011;45247;47.466;19.004;2022-10-16T04:09:52;13.48;;;8.10;;
59442;SDS011;45247;47.466;19.004;2022-10-16T04:12:20;15.60;;;8.35;;
59442;SDS011;45247;47.466;19.004;2022-10-16T04:14:48;12.98;;;9.32;;
59442;SDS011;45247;47.466;19.004;2022-10-16T04:17:16;13.18;;;8.85;;
59442;SDS011;45247;47.466;19.004;2022-10-16T04:19:44;14.10;;;8.95;;
59442;SDS011;45247;47.466;19.004;2022-10-16T04:22:12;16.92;;;9.48;;
59442;SDS011;45247;47.466;19.004;2022-10-16T04:24:40;12.73;;;8.30;;
59442;SDS011;45247;47.466;19.004;2022-10-16T04:27:10;13.75;;;8.77;;
59442;SDS011;45247;47.466;19.004;2022-10-16T04:29:38;13.05;;;7.72;;
59442;SDS011;45247;47.466;19.004;2022-10-16T04:32:07;12.95;;;7.70;;
59442;SDS011;45247;47.466;19.004;2022-10-16T04:34:36;14.77;;;8.88;;
59442;SDS011;45247;47.466;19.004;2022-10-16T04:37:05;18.95;;;8.00;;
59442;SDS011;45247;47.466;19.004;2022-10-16T04:39:33;16.63;;;8.02;;
59442;SDS011;45247;47.466;19.004;2022-10-16T04:42:01;11.75;;;7.60;;
59442;SDS011;45247;47.466;19.004;2022-10-16T04:44:31;13.82;;;7.97;;
59442;SDS011;45247;47.466;19.004;2022-10-16T04:46:59;11.02;;;7.47;;
59442;SDS011;45247;47.466;19.004;2022-10-16T04:49:27;12.23;;;7.65;;
59442;SDS011;45247;47.466;19.004;2022-10-16T04:51:55;17.23;;;9.23;;
59442;SDS011;45247;47.466;19.004;2022-10-16T04:54:23;14.25;;;8.35;;
59442;SDS011;45247;47.466;19.004;2022-10-16T04:56:51;11.48;;;7.80;;
59442;SDS011;45247;47.466;19.004;2022-10-16T04:59:19;16.30;;;7.78;;
59442;SDS011;45247;47.466;19.004;2022-10-16T05:01:49;12.93;;;8.32;;
59442;SDS011;45247;47.466;19.004;2022-10-16T05:04:17;13.60;;;8.30;;
59442;SDS011;45247;47.466;19.004;2022-10-16T05:06:45;13.30;;;9.15;;
59442;SDS011;45247;47.466;19.004;2022-10-16T05:09:15;13.25;;;8.43;;
59442;SDS011;45247;47.466;19.004;2022-10-16T05:11:43;14.68;;;8.45;;
59442;SDS011;45247;47.466;19.004;2022-10-16T05:14:11;14.20;;;8.57;;
59442;SDS011;45247;47.466;19.004;2022-10-16T05:16:39;12.63;;;8.10;;
59442;SDS011;45247;47.466;19.004;2022-10-16T05:19:08;19.48;;;8.23;;
59442;SDS011;45247;47.466;19.004;2022-10-16T05:21:53;12.82;;;7.60;;
59442;SDS011;45247;47.466;19.004;2022-10-16T05:24:21;16.25;;;8.55;;
59442;SDS011;45247;47.466;19.004;2022-10-16T05:26:50;11.63;;;7.78;;
59442;SDS011;45247;47.466;19.004;2022-10-16T05:29:18;14.05;;;8.32;;
59442;SDS011;45247;47.466;19.004;2022-10-16T05:31:46;11.38;;;8.43;;
59442;SDS011;45247;47.466;19.004;2022-10-16T05:34:19;15.95;;;8.35;;
59442;SDS011;45247;47.466;19.004;2022-10-16T05:36:47;14.45;;;8.27;;
59442;SDS011;45247;47.466;19.004;2022-10-16T05:39:15;15.25;;;8.80;;
59442;SDS011;45247;47.466;19.004;2022-10-16T05:41:44;15.70;;;8.40;;
59442;SDS011;45247;47.466;19.004;2022-10-16T05:44:12;13.90;;;8.65;;
59442;SDS011;45247;47.466;19.004;2022-10-16T05:46:40;15.05;;;8.18;;
59442;SDS011;45247;47.466;19.004;2022-10-16T05:49:08;14.70;;;8.10;;
59442;SDS011;45247;47.466;19.004;2022-10-16T05:51:37;13.60;;;8.20;;
59442;SDS011;45247;47.466;19.004;2022-10-16T05:54:05;12.38;;;7.28;;
59442;SDS011;45247;47.466;19.004;2022-10-16T05:56:33;15.82;;;8.18;;
59442;SDS011;45247;47.466;19.004;2022-10-16T05:59:02;10.02;;;7.50;;
59442;SDS011;45247;47.466;19.004;2022-10-16T06:01:31;17.08;;;8.23;;
59442;SDS011;45247;47.466;19.004;2022-10-16T06:03:59;11.18;;;7.68;;
59442;SDS011;45247;47.466;19.004;2022-10-16T06:06:28;13.88;;;7.88;;
59442;SDS011;45247;47.466;19.004;2022-10-16T06:08:58;10.93;;;7.53;;
59442;SDS011;45247;47.466;19.004;2022-10-16T06:11:28;12.40;;;7.45;;
59442;SDS011;45247;47.466;19.004;2022-10-16T06:13:58;12.70;;;7.40;;
59442;SDS011;45247;47.466;19.004;2022-10-16T06:16:29;12.52;;;7.22;;
59442;SDS011;45247;47.466;19.004;2022-10-16T06:18:57;9.95;;;7.00;;
59442;SDS011;45247;47.466;19.004;2022-10-16T06:21:26;11.93;;;7.20;;
59442;SDS011;45247;47.466;19.004;2022-10-16T06:23:55;15.00;;;8.48;;
59442;SDS011;45247;47.466;19.004;2022-10-16T06:26:26;13.07;;;8.13;;
59442;SDS011;45247;47.466;19.004;2022-10-16T06:28:55;11.80;;;7.68;;
59442;SDS011;45247;47.466;19.004;2022-10-16T06:31:25;12.85;;;7.78;;
59442;SDS011;45247;47.466;19.004;2022-10-16T06:33:56;13.52;;;7.60;;
59442;SDS011;45247;47.466;19.004;2022-10-16T06:36:25;11.00;;;7.50;;
59442;SDS011;45247;47.466;19.004;2022-10-16T06:38:53;12.23;;;7.47;;
59442;SDS011;45247;47.466;19.004;2022-10-16T06:41:22;16.30;;;7.57;;
59442;SDS011;45247;47.466;19.004;2022-10-16T06:43:52;10.02;;;6.88;;
59442;SDS011;45247;47.466;19.004;2022-10-16T06:46:20;11.40;;;7.18;;
59442;SDS011;45247;47.466;19.004;2022-10-16T06:48:49;14.10;;;7.95;;
59442;SDS011;45247;47.466;19.004;2022-10-16T06:51:18;12.15;;;7.50;;
59442;SDS011;45247;47.466;19.004;2022-10-16T06:53:48;15.20;;;8.25;;
59442;SDS011;45247;47.466;19.004;2022-10-16T06:56:28;12.50;;;7.45;;
59442;SDS011;45247;47.466;19.004;2022-10-16T06:58:59;13.52;;;7.97;;
59442;SDS011;45247;47.466;19.004;2022-10-16T07:01:28;12.52;;;7.78;;
59442;SDS011;45247;47.466;19.004;2022-10-16T07:03:56;11.57;;;7.68;;
59442;SDS011;45247;47.466;19.004;2022-10-16T07:06:25;15.07;;;7.78;;
59442;SDS011;45247;47.466;19.004;2022-10-16T07:08:53;14.30;;;7.95;;
59442;SDS011;45247;47.466;19.004;2022-10-16T07:11:22;12.52;;;7.47;;
59442;SDS011;45247;47.466;19.004;2022-10-16T07:13:51;13.82;;;7.82;;
59442;SDS011;45247;47.466;19.004;2022-10-16T07:16:23;13.95;;;8.00;;
59442;SDS011;45247;47.466;19.004;2022-10-16T07:18:53;16.33;;;7.80;;
59442;SDS011;45247;47.466;19.004;2022-10-16T07:21:26;15.35;;;8.57;;
59442;SDS011;45247;47.466;19.004;2022-10-16T07:23:56;11.02;;;7.30;;
59442;SDS011;45247;47.466;19.004;2022-10-16T07:26:25;16.65;;;8.20;;
59442;SDS011;45247;47.466;19.004;2022-10-16T07:28:54;14.88;;;7.93;;
59442;SDS011;45247;47.466;19.004;2022-10-16T07:31:24;16.35;;;8.18;;
59442;SDS011;45247;47.466;19.004;2022-10-16T07:33:53;12.45;;;7.82;;
59442;SDS011;45247;47.466;19.004;2022-10-16T07:36:21;13.60;;;7.40;;
59442;SDS011;45247;47.466;19.004;2022-10-16T07:38:49;12.95;;;7.65;;
59442;SDS011;45247;47.466;19.004;2022-10-16T07:41:22;15.65;;;8.23;;
59442;SDS011;45247;47.466;19.004;2022-10-16T07:43:50;16.00;;;7.47;;
59442;SDS011;45247;47.466;19.004;2022-10-16T07:46:21;12.75;;;7.97;;
59442;SDS011;45247;47.466;19.004;2022-10-16T07:48:51;13.85;;;8.93;;
59442;SDS011;45247;47.466;19.004;2022-10-16T07:51:20;16.15;;;7.97;;
59442;SDS011;45247;47.466;19.004;2022-10-16T07:53:49;17.10;;;8.02;;
59442;SDS011;45247;47.466;19.004;2022-10-16T07:56:18;12.60;;;7.78;;
59442;SDS011;45247;47.466;19.004;2022-10-16T07:58:48;12.88;;;7.68;;
59442;SDS011;45247;47.466;19.004;2022-10-16T08:01:17;22.63;;;10.48;;
59442;SDS011;45247;47.466;19.004;2022-10-16T08:03:46;17.52;;;7.75;;
59442;SDS011;45247;47.466;19.004;2022-10-16T08:06:17;12.90;;;8.00;;
59442;SDS011;45247;47.466;19.004;2022-10-16T08:08:52;12.38;;;7.72;;
59442;SDS011;45247;47.466;19.004;2022-10-16T08:11:20;13.07;;;7.22;;
59442;SDS011;45247;47.466;19.004;2022-10-16T08:13:48;15.50;;;8.70;;
59442;SDS011;45247;47.466;19.004;2022-10-16T08:16:16;14.02;;;7.75;;
59442;SDS011;45247;47.466;19.004;2022-10-16T08:18:44;12.93;;;8.00;;
59442;SDS011;45247;47.466;19.004;2022-10-16T08:21:13;10.95;;;7.75;;
59442;SDS011;45247;47.466;19.004;2022-10-16T08:23:48;12.50;;;7.95;;
59442;SDS011;45247;47.466;19.004;2022-10-16T08:26:23;13.27;;;8.43;;
59442;SDS011;45247;47.466;19.004;2022-10-16T08:28:51;15.23;;;8.10;;
59442;SDS011;45247;47.466;19.004;2022-10-16T08:31:20;19.05;;;8.20;;
59442;SDS011;45247;47.466;19.004;2022-10-16T08:33:48;15.70;;;8.77;;
59442;SDS011;45247;47.466;19.004;2022-10-16T08:36:17;12.40;;;7.88;;
59442;SDS011;45247;47.466;19.004;2022-10-16T08:38:48;25.00;;;10.02;;
59442;SDS011;45247;47.466;19.004;2022-10-16T08:41:26;14.43;;;8.63;;
59442;SDS011;45247;47.466;19.004;2022-10-16T08:44:19;16.02;;;8.60;;
59442;SDS011;45247;47.466;19.004;2022-10-16T08:47:03;12.70;;;8.00;;
59442;SDS011;45247;47.466;19.004;2022-10-16T08:49:39;12.98;;;9.30;;
59442;SDS011;45247;47.466;19.004;2022-10-16T08:52:10;14.88;;;8.48;;
59442;SDS011;45247;47.466;19.004;2022-10-16T08:54:42;13.23;;;8.27;;
59442;SDS011;45247;47.466;19.004;2022-10-16T08:57:14;17.90;;;8.35;;
59442;SDS011;45247;47.466;19.004;2022-10-16T08:59:50;13.45;;;8.27;;
59442;SDS011;45247;47.466;19.004;2022-10-16T09:02:22;12.95;;;8.77;;
59442;SDS011;45247;47.466;19.004;2022-10-16T09:04:58;14.27;;;9.18;;
59442;SDS011;45247;47.466;19.004;2022-10-16T09:07:48;13.90;;;9.35;;
59442;SDS011;45247;47.466;19.004;2022-10-16T09:10:33;15.02;;;8.45;;
59442;SDS011;45247;47.466;19.004;2022-10-16T09:13:14;13.63;;;8.25;;
59442;SDS011;45247;47.466;19.004;2022-10-16T09:15:49;14.38;;;8.43;;
59442;SDS011;45247;47.466;19.004;2022-10-16T09:18:24;15.80;;;8.60;;
59442;SDS011;45247;47.466;19.004;2022-10-16T09:20:59;15.63;;;8.48;;
59442;SDS011;45247;47.466;19.004;2022-10-16T09:23:35;15.95;;;9.00;;
59442;SDS011;45247;47.466;19.004;2022-10-16T09:26:09;12.65;;;8.43;;
59442;SDS011;45247;47.466;19.004;2022-10-16T09:28:38;14.63;;;8.88;;
59442;SDS011;45247;47.466;19.004;2022-10-16T09:31:08;13.80;;;8.73;;
59442;SDS011;45247;47.466;19.004;2022-10-16T09:33:42;12.85;;;8.45;;
59442;SDS011;45247;47.466;19.004;2022-10-16T09:36:14;16.13;;;8.07;;
59442;SDS011;45247;47.466;19.004;2022-10-16T09:38:42;17.45;;;8.90;;
59442;SDS011;45247;47.466;19.004;2022-10-16T09:41:15;15.40;;;8.70;;
59442;SDS011;45247;47.466;19.004;2022-10-16T09:43:47;14.98;;;8.32;;
59442;SDS011;45247;47.466;19.004;2022-10-16T09:46:21;12.77;;;8.30;;
59442;SDS011;45247;47.466;19.004;2022-10-16T09:48:53;12.57;;;8.23;;
59442;SDS011;45247;47.466;19.004;2022-10-16T09:51:24;14.60;;;9.73;;
59442;SDS011;45247;47.466;19.004;2022-10-16T09:53:55;12.30;;;7.72;;
59442;SDS011;45247;47.466;19.004;2022-10-16T09:56:27;16.52;;;7.88;;
59442;SDS011;45247;47.466;19.004;2022-10-16T09:58:57;11.25;;;8.15;;
59442;SDS011;45247;47.466;19.004;2022-10-16T10:01:28;14.00;;;8.13;;
59442;SDS011;45247;47.466;19.004;2022-10-16T10:06:30;12.43;;;8.02;;
59442;SDS011;45247;47.466;19.004;2022-10-16T10:09:02;15.25;;;8.68;;
59442;SDS011;45247;47.466;19.004;2022-10-16T10:14:09;10.68;;;6.82;;
59442;SDS011;45247;47.466;19.004;2022-10-16T10:16:45;11.02;;;8.23;;
59442;SDS011;45247;47.466;19.004;2022-10-16T10:19:14;12.65;;;7.45;;
59442;SDS011;45247;47.466;19.004;2022-10-16T10:21:43;14.90;;;7.97;;
59442;SDS011;45247;47.466;19.004;2022-10-16T10:24:13;14.30;;;8.52;;
59442;SDS011;45247;47.466;19.004;2022-10-16T10:26:44;12.10;;;7.63;;
59442;SDS011;45247;47.466;19.004;2022-10-16T10:29:21;12.65;;;8.05;;
59442;SDS011;45247;47.466;19.004;2022-10-16T10:32:02;11.68;;;7.75;;
59442;SDS011;45247;47.466;19.004;2022-10-16T10:34:42;17.60;;;8.00;;
59442;SDS011;45247;47.466;19.004;2022-10-16T10:37:32;15.05;;;7.82;;
59442;SDS011;45247;47.466;19.004;2022-10-16T10:40:13;13.00;;;8.07;;
59442;SDS011;45247;47.466;19.004;2022-10-16T10:42:53;12.52;;;7.05;;
59442;SDS011;45247;47.466;19.004;2022-10-16T10:45:30;11.35;;;6.80;;
59442;SDS011;45247;47.466;19.004;2022-10-16T10:48:15;12.85;;;7.22;;
59442;SDS011;45247;47.466;19.004;2022-10-16T10:50:49;13.73;;;6.55;;
59442;SDS011;45247;47.466;19.004;2022-10-16T10:53:24;12.43;;;6.10;;
59442;SDS011;45247;47.466;19.004;2022-10-16T10:56:03;12.55;;;7.00;;
59442;SDS011;45247;47.466;19.004;2022-10-16T10:58:44;10.88;;;6.03;;
59442;SDS011;45247;47.466;19.004;2022-10-16T11:01:44;11.73;;;6.28;;
59442;SDS011;45247;47.466;19.004;2022-10-16T11:04:31;10.25;;;6.03;;
59442;SDS011;45247;47.466;19.004;2022-10-16T11:07:09;12.10;;;5.53;;
59442;SDS011;45247;47.466;19.004;2022-10-16T11:09:45;9.90;;;5.80;;
59442;SDS011;45247;47.466;19.004;2022-10-16T11:12:17;9.80;;;5.72;;
59442;SDS011;45247;47.466;19.004;2022-10-16T11:14:49;8.93;;;5.50;;
59442;SDS011;45247;47.466;19.004;2022-10-16T11:17:25;17.00;;;5.85;;
59442;SDS011;45247;47.466;19.004;2022-10-16T11:19:58;11.50;;;5.40;;
59442;SDS011;45247;47.466;19.004;2022-10-16T11:22:33;6.82;;;4.75;;
59442;SDS011;45247;47.466;19.004;2022-10-16T11:25:05;7.75;;;5.40;;
59442;SDS011;45247;47.466;19.004;2022-10-16T11:27:41;15.50;;;5.63;;
59442;SDS011;45247;47.466;19.004;2022-10-16T11:30:15;16.92;;;5.65;;
59442;SDS011;45247;47.466;19.004;2022-10-16T11:33:02;10.60;;;5.50;;
59442;SDS011;45247;47.466;19.004;2022-10-16T11:35:39;11.02;;;4.90;;
59442;SDS011;45247;47.466;19.004;2022-10-16T11:38:14;12.88;;;5.40;;
59442;SDS011;45247;47.466;19.004;2022-10-16T11:40:48;8.43;;;4.97;;
59442;SDS011;45247;47.466;19.004;2022-10-16T11:45:54;10.25;;;5.55;;
59442;SDS011;45247;47.466;19.004;2022-10-16T11:48:27;7.00;;;4.65;;
59442;SDS011;45247;47.466;19.004;2022-10-16T11:50:59;10.65;;;5.22;;
59442;SDS011;45247;47.466;19.004;2022-10-16T11:53:39;10.30;;;5.32;;
59442;SDS011;45247;47.466;19.004;2022-10-16T11:56:13;10.60;;;4.82;;
59442;SDS011;45247;47.466;19.004;2022-10-16T11:58:46;6.70;;;4.63;;
59442;SDS011;45247;47.466;19.004;2022-10-16T12:01:26;9.93;;;4.60;;
59442;SDS011;45247;47.466;19.004;2022-10-16T12:04:02;7.25;;;4.28;;
59442;SDS011;45247;47.466;19.004;2022-10-16T12:06:40;11.77;;;4.97;;
59442;SDS011;45247;47.466;19.004;2022-10-16T12:09:14;8.18;;;4.72;;
59442;SDS011;45247;47.466;19.004;2022-10-16T12:11:54;12.18;;;5.07;;
59442;SDS011;45247;47.466;19.004;2022-10-16T12:14:38;11.00;;;4.57;;
59442;SDS011;45247;47.466;19.004;2022-10-16T12:17:33;10.23;;;4.85;;
59442;SDS011;45247;47.466;19.004;2022-10-16T12:20:18;7.50;;;4.68;;
59442;SDS011;45247;47.466;19.004;2022-10-16T12:22:49;10.30;;;4.05;;
59442;SDS011;45247;47.466;19.004;2022-10-16T12:25:21;7.43;;;4.97;;
59442;SDS011;45247;47.466;19.004;2022-10-16T12:27:55;8.05;;;5.25;;
59442;SDS011;45247;47.466;19.004;2022-10-16T12:30:26;7.63;;;5.05;;
59442;SDS011;45247;47.466;19.004;2022-10-16T12:33:02;13.48;;;5.20;;
59442;SDS011;45247;47.466;19.004;2022-10-16T12:35:33;11.77;;;5.25;;
59442;SDS011;45247;47.466;19.004;2022-10-16T12:38:14;9.73;;;5.10;;
59442;SDS011;45247;47.466;19.004;2022-10-16T12:40:44;8.88;;;4.47;;
59442;SDS011;45247;47.466;19.004;2022-10-16T12:43:34;9.48;;;4.65;;
59442;SDS011;45247;47.466;19.004;2022-10-16T12:46:05;11.60;;;5.50;;
59442;SDS011;45247;47.466;19.004;2022-10-16T12:48:50;11.18;;;5.03;;
59442;SDS011;45247;47.466;19.004;2022-10-16T12:51:34;7.35;;;4.60;;
59442;SDS011;45247;47.466;19.004;2022-10-16T12:54:04;10.50;;;4.60;;
59442;SDS011;45247;47.466;19.004;2022-10-16T12:56:41;7.70;;;4.50;;
59442;SDS011;45247;47.466;19.004;2022-10-16T12:59:23;8.05;;;4.07;;
59442;SDS011;45247;47.466;19.004;2022-10-16T13:02:05;25.27;;;5.40;;
59442;SDS011;45247;47.466;19.004;2022-10-16T13:04:52;11.20;;;5.25;;
59442;SDS011;45247;47.466;19.004;2022-10-16T13:07:40;14.60;;;5.50;;
59442;SDS011;45247;47.466;19.004;2022-10-16T13:10:23;14.45;;;5.72;;
59442;SDS011;45247;47.466;19.004;2022-10-16T13:13:02;8.93;;;4.78;;
59442;SDS011;45247;47.466;19.004;2022-10-16T13:15:56;8.65;;;4.45;;
59442;SDS011;45247;47.466;19.004;2022-10-16T13:18:34;10.20;;;4.63;;
59442;SDS011;45247;47.466;19.004;2022-10-16T13:21:20;9.07;;;4.35;;
59442;SDS011;45247;47.466;19.004;2022-10-16T13:24:02;7.47;;;4.07;;
59442;SDS011;45247;47.466;19.004;2022-10-16T13:26:43;10.23;;;4.28;;
59442;SDS011;45247;47.466;19.004;2022-10-16T13:29:17;9.65;;;4.78;;
59442;SDS011;45247;47.466;19.004;2022-10-16T13:31:47;9.95;;;4.90;;
59442;SDS011;45247;47.466;19.004;2022-10-16T13:34:15;5.18;;;3.70;;
59442;SDS011;45247;47.466;19.004;2022-10-16T13:36:48;8.90;;;4.80;;
59442;SDS011;45247;47.466;19.004;2022-10-16T13:39:21;8.77;;;4.50;;
59442;SDS011;45247;47.466;19.004;2022-10-16T13:44:35;7.75;;;4.15;;
59442;SDS011;45247;47.466;19.004;2022-10-16T13:47:12;8.63;;;4.20;;
59442;SDS011;45247;47.466;19.004;2022-10-16T13:49:44;9.43;;;4.80;;
59442;SDS011;45247;47.466;19.004;2022-10-16T13:52:18;6.05;;;3.95;;
59442;SDS011;45247;47.466;19.004;2022-10-16T13:57:15;8.35;;;4.40;;
59442;SDS011;45247;47.466;19.004;2022-10-16T13:59:53;9.95;;;4.22;;
59442;SDS011;45247;47.466;19.004;2022-10-16T14:02:22;10.55;;;4.80;;
59442;SDS011;45247;47.466;19.004;2022-10-16T14:04:54;10.27;;;5.05;;
59442;SDS011;45247;47.466;19.004;2022-10-16T14:07:26;6.93;;;4.35;;
59442;SDS011;45247;47.466;19.004;2022-10-16T14:09:56;8.45;;;4.18;;
59442;SDS011;45247;47.466;19.004;2022-10-16T14:14:57;6.60;;;4.47;;
59442;SDS011;45247;47.466;19.004;2022-10-16T14:17:27;8.00;;;4.13;;
59442;SDS011;45247;47.466;19.004;2022-10-16T14:19:58;8.98;;;3.78;;
59442;SDS011;45247;47.466;19.004;2022-10-16T14:22:33;9.27;;;4.47;;
59442;SDS011;45247;47.466;19.004;2022-10-16T14:25:08;6.82;;;4.22;;
59442;SDS011;45247;47.466;19.004;2022-10-16T14:27:56;5.05;;;3.67;;
59442;SDS011;45247;47.466;19.004;2022-10-16T14:30:28;6.13;;;3.92;;
59442;SDS011;45247;47.466;19.004;2022-10-16T14:32:57;9.85;;;4.28;;
59442;SDS011;45247;47.466;19.004;2022-10-16T14:35:30;7.45;;;3.85;;
59442;SDS011;45247;47.466;19.004;2022-10-16T14:38:01;6.13;;;4.10;;
59442;SDS011;45247;47.466;19.004;2022-10-16T14:40:32;7.50;;;4.38;;
59442;SDS011;45247;47.466;19.004;2022-10-16T14:43:03;8.90;;;4.68;;
59442;SDS011;45247;47.466;19.004;2022-10-16T14:45:33;12.27;;;6.53;;
59442;SDS011;45247;47.466;19.004;2022-10-16T14:48:03;9.18;;;5.47;;
59442;SDS011;45247;47.466;19.004;2022-10-16T14:50:45;8.88;;;4.68;;
59442;SDS011;45247;47.466;19.004;2022-10-16T14:53:14;7.55;;;4.10;;
59442;SDS011;45247;47.466;19.004;2022-10-16T14:55:42;8.55;;;4.57;;
59442;SDS011;45247;47.466;19.004;2022-10-16T14:58:13;8.65;;;4.47;;
59442;SDS011;45247;47.466;19.004;2022-10-16T15:00:42;8.63;;;4.50;;
59442;SDS011;45247;47.466;19.004;2022-10-16T15:03:10;6.25;;;3.88;;
59442;SDS011;45247;47.466;19.004;2022-10-16T15:05:39;5.85;;;3.80;;
59442;SDS011;45247;47.466;19.004;2022-10-16T15:08:07;10.73;;;4.47;;
59442;SDS011;45247;47.466;19.004;2022-10-16T15:10:37;9.65;;;4.70;;
59442;SDS011;45247;47.466;19.004;2022-10-16T15:13:09;8.40;;;4.40;;